FIMPOMAA

Guest
Details From FIMP - Sir Seewoosagur Ramgoolam Intl
To OMAA - Abu Dhabi Intl
Flight Number -
Tags Generated
Created
Modified
Stats Distance 2,700 nm / 5,001 km
Max Altitude 0 ft / 0 m
Waypoints 3
Social Downloads 1
Likes 0
Share VATSIM

Download

Looking for another format? Having issues loading an existing format? Contact us
Advertisement - Login to hide

Notes

Generated

Route

FIMP R1750 OMAA

ID Type Via Altitude Latitude Longitude Leg Dist Tot Dist Heading (true) Name
O FIMP APT - 0 ft / 0 m -20.42332˚ 57.66925˚ - 0 nm - -
R1750 FIX - 0 ft / 0 m 24.44439˚ 54.63521˚ 2700 nm 2700 nm 356° / 356° -
O OMAA APT - 0 ft / 0 m 24.44439˚ 54.63521˚ 0 nm 2700 nm 0° / 180° -

Altitude Profile

Advertisement - Login to hide

Weather


0- 5 10 15 20 25 30 35+ Temperature / ° C

Clouds and Precipitation
Forecast for 2017-12-16 00:00 UTC. Updated 26 minutes ago

Ground ~20,000 ft ~40,000 ft Winds

FIMP

Details ICAO FIMP (MRU)
Name SIR SEEWOOSAGUR RAMGOOLAM INTL
Region Mauritius
Timezone Indian/Mauritius (UTC+4.0)
Stats Elevation 186 ft / 57 m (AMSL)
Location -20.430235° 57.683602°
Runways 1
Magnetic Variation 18.412° W

METAR

FIMP 152300Z 03009KT 9999 FEW016 26/21 Q1014

Decode

TAF

TAF FIMP 151715Z 1518/1700 06008KT 9999 SCT017 TEMPO 1520/1602 7000 -SHRA SCT015 BKN050

Decode

Departure Runways

ID Width Length Bearing (true) Bearing (mag) Surface Threshold Offset Overrun Length
14 148 ft / 45 m 11,037 ft / 3,364 m 117.22° 135.63° Asphalt 1,082 ft / 330 m 200 ft / 61 m
32 148 ft / 45 m 11,037 ft / 3,364 m 297.21° 315.62° Asphalt 0 ft / 0 m 0 ft / 0 m

OMAA

Details ICAO OMAA (AUH)
Name ABU DHABI INTL
Region United Arab Emirates
Timezone Asia/Dubai (UTC+4.0)
Stats Elevation 88 ft / 27 m (AMSL)
Location 24.433049° 54.651182°
Runways 1
Magnetic Variation 1.979° E

METAR

OMAA 152300Z 11007KT CAVOK 19/10 Q1017 NOSIG

Decode

TAF

TAF OMAA 151700Z 1518/1700 09005KT 8000 FEW050 BECMG 1523/1601 17014KT BECMG 1609/1611 VRB02KT BECMG 1612/1614 01007KT FEW045TCU BECMG 1616/1618 09009KT NSC

Decode

Destination Runways

ID Width Length Bearing (true) Bearing (mag) Surface Threshold Offset Overrun Length
13 148 ft / 45 m 13,461 ft / 4,103 m 127.94° 125.96° Asphalt 0 ft / 0 m 180 ft / 55 m
31 148 ft / 45 m 13,461 ft / 4,103 m 307.95° 305.97° Asphalt 0 ft / 0 m 196 ft / 60 m

Approach Navaids

Runway Type Ident Frequency Range Bearing (true) Bearing (mag) Slope Elevation
13 Localiser IAE 108.90 MHz 18 nm / 33 km 127.95° 125.97° - 110 ft / 34 m (AMSL)
13 Glidescope IAE 108.90 MHz 10 nm / 19 km 127.94° 125.96° 3.00° 120 ft / 37 m (AMSL)
13 DME IAE 108.90 MHz 18 nm / 33 km - - - 98 ft / 30 m (AMSL)
31 Localiser IAW 109.30 MHz 18 nm / 33 km 307.93° 305.95° - 88 ft / 27 m (AMSL)
31 Glidescope IAW 109.30 MHz 10 nm / 19 km 307.94° 305.96° 3.00° 122 ft / 37 m (AMSL)
31 DME IAW 109.30 MHz 18 nm / 33 km - - - 96 ft / 29 m (AMSL)

Popular Alternatives